createdAt,value
2022-08-16T00:01:04.075Z,98559.00
2022-08-16T00:03:37.713Z,98549.09
2022-08-16T00:06:04.612Z,98558.25
2022-08-16T00:08:36.875Z,98562.22
2022-08-16T00:11:15.235Z,98561.31
2022-08-16T00:13:53.631Z,98555.78
2022-08-16T00:17:05.812Z,98574.69
2022-08-16T00:19:19.765Z,98551.63
2022-08-16T00:21:53.360Z,98566.56
2022-08-16T00:24:32.505Z,98567.69
2022-08-16T00:27:01.229Z,98563.53
2022-08-16T00:29:29.990Z,98577.88
2022-08-16T00:31:59.763Z,98581.50
2022-08-16T00:34:44.087Z,98575.50
2022-08-16T00:37:17.082Z,98570.88
2022-08-16T00:39:46.948Z,98571.28
2022-08-16T00:42:14.643Z,98571.53
2022-08-16T00:45:06.506Z,98568.13
2022-08-16T00:47:37.781Z,98567.34
2022-08-16T00:50:11.466Z,98537.38
2022-08-16T00:52:50.475Z,98566.28
2022-08-16T00:55:20.691Z,98571.00
2022-08-16T00:57:59.482Z,98576.25
2022-08-16T01:00:30.182Z,98576.81
2022-08-16T01:02:58.848Z,98567.66
2022-08-16T01:05:25.731Z,98582.06
2022-08-16T01:07:53.734Z,98582.16
2022-08-16T01:10:32.531Z,98579.84
2022-08-16T01:13:15.828Z,98573.31
2022-08-16T01:15:47.929Z,98585.59
2022-08-16T01:18:39.332Z,98581.97
2022-08-16T01:21:39.908Z,98593.88
2022-08-16T01:24:53.722Z,98577.00
2022-08-16T01:27:26.205Z,98555.19
2022-08-16T01:30:19.488Z,98592.94
2022-08-16T01:33:01.661Z,98605.69
2022-08-16T01:35:56.749Z,98631.63
2022-08-16T01:38:28.717Z,98641.22
2022-08-16T01:41:02.342Z,98645.94
2022-08-16T01:43:31.411Z,98634.63
2022-08-16T01:46:30.206Z,98612.78
2022-08-16T01:48:48.426Z,98624.25
2022-08-16T01:51:17.365Z,98597.59
2022-08-16T01:53:44.096Z,98578.94
2022-08-16T01:56:23.529Z,98598.59
2022-08-16T01:58:54.765Z,98591.25
2022-08-16T02:01:22.498Z,98583.06
2022-08-16T02:03:50.581Z,98581.16
2022-08-16T02:06:26.070Z,98561.31
2022-08-16T02:09:01.924Z,98561.13
2022-08-16T02:11:47.391Z,98548.53
2022-08-16T02:14:18.262Z,98545.16
2022-08-16T02:16:48.721Z,98566.06
2022-08-16T02:19:17.620Z,98553.66
2022-08-16T02:22:09.206Z,98548.19
2022-08-16T02:24:41.242Z,98550.72
2022-08-16T02:27:09.700Z,98549.06
2022-08-16T02:29:36.557Z,98539.28
2022-08-16T02:32:49.058Z,98555.94
2022-08-16T02:34:51.350Z,98544.94
2022-08-16T02:37:23.160Z,98537.25
2022-08-16T02:39:54.165Z,98524.47
2022-08-16T02:42:21.180Z,98528.81
2022-08-16T02:44:48.948Z,98535.47
2022-08-16T02:47:25.553Z,98536.34
2022-08-16T02:50:52.462Z,98539.69
2022-08-16T02:52:39.584Z,98537.69
2022-08-16T02:55:11.983Z,98539.38
2022-08-16T02:57:54.584Z,98536.41
2022-08-16T03:00:33.957Z,98542.22
2022-08-16T03:03:03.389Z,98528.88
2022-08-16T03:05:31.582Z,98526.53
2022-08-16T03:07:58.650Z,98514.75
2022-08-16T03:10:33.430Z,98517.75
2022-08-16T03:13:01.008Z,98531.75
2022-08-16T03:15:28.909Z,98522.22
2022-08-16T03:17:56.519Z,98505.56
2022-08-16T03:20:32.319Z,98525.72
2022-08-16T03:22:59.706Z,98522.88
2022-08-16T03:25:40.885Z,98520.41
2022-08-16T03:28:11.117Z,98506.50
2022-08-16T03:30:38.172Z,98524.88
2022-08-16T03:33:05.574Z,98516.16
2022-08-16T03:35:36.706Z,98507.19
2022-08-16T03:38:32.572Z,98512.63
2022-08-16T03:40:58.586Z,98516.16
2022-08-16T03:43:51.968Z,98510.13
2022-08-16T03:46:13.522Z,98504.28
2022-08-16T03:49:00.285Z,98510.13
2022-08-16T03:51:28.756Z,98514.94
2022-08-16T03:53:57.699Z,98521.97
2022-08-16T03:56:28.203Z,98515.63
2022-08-16T03:58:57.590Z,98515.63
2022-08-16T04:01:25.140Z,98526.47
2022-08-16T04:03:56.152Z,98522.50
2022-08-16T04:06:22.832Z,98528.66
2022-08-16T04:08:49.413Z,98533.69
2022-08-16T04:11:16.461Z,98537.53
2022-08-16T04:14:00.776Z,98518.19
2022-08-16T04:16:32.339Z,98521.34
2022-08-16T04:19:01.938Z,98521.84
2022-08-16T04:21:31.977Z,98515.72
2022-08-16T04:23:59.437Z,98514.75
2022-08-16T04:26:30.816Z,98523.53
2022-08-16T04:29:15.041Z,98521.84
2022-08-16T04:31:45.121Z,98517.47
2022-08-16T04:34:12.367Z,98492.59
2022-08-16T04:36:39.648Z,98509.50
2022-08-16T04:39:06.412Z,98515.16
2022-08-16T04:41:37.602Z,98504.47
2022-08-16T04:44:32.983Z,98512.94
2022-08-16T04:47:00.560Z,98527.63
2022-08-16T04:49:43.958Z,98501.16
2022-08-16T04:52:34.009Z,98517.66
2022-08-16T04:54:59.988Z,98529.28
2022-08-16T04:57:29.938Z,98539.19
2022-08-16T04:59:57.234Z,98542.19
2022-08-16T05:02:42.201Z,98550.38
2022-08-16T05:05:17.615Z,98542.91
2022-08-16T05:07:59.416Z,98544.91
2022-08-16T05:10:28.157Z,98556.22
2022-08-16T05:12:57.386Z,98545.19
2022-08-16T05:15:24.561Z,98551.22
2022-08-16T05:17:58.796Z,98547.84
2022-08-16T05:20:38.672Z,98535.00
2022-08-16T05:23:13.655Z,98522.00
2022-08-16T05:25:48.201Z,98549.59
2022-08-16T05:28:16.826Z,98548.75
2022-08-16T05:30:43.535Z,98526.94
2022-08-16T05:33:16.182Z,98521.53
2022-08-16T05:35:43.915Z,98559.03
2022-08-16T05:38:32.492Z,98568.91
2022-08-16T05:41:00.529Z,98549.88
2022-08-16T05:43:32.279Z,98561.66
2022-08-16T05:46:30.300Z,98573.03
2022-08-16T05:49:05.666Z,98578.53
2022-08-16T05:51:38.198Z,98575.66
2022-08-16T05:54:11.356Z,98561.97
2022-08-16T05:56:39.367Z,98563.97
2022-08-16T05:59:07.072Z,98551.13
2022-08-16T06:01:38.248Z,98564.59
2022-08-16T06:04:13.272Z,98556.41
2022-08-16T06:06:41.879Z,98559.78
2022-08-16T06:09:15.727Z,98572.91
2022-08-16T06:11:45.291Z,98549.44
2022-08-16T06:14:12.008Z,98564.78
2022-08-16T06:16:38.710Z,98546.09
2022-08-16T06:19:05.421Z,98554.78
2022-08-16T06:21:36.960Z,98565.94
2022-08-16T06:24:52.849Z,98573.69
2022-08-16T06:26:58.091Z,98561.75
2022-08-16T06:29:25.156Z,98606.22
2022-08-16T06:31:51.839Z,98605.59
2022-08-16T06:34:55.134Z,98604.09
2022-08-16T06:37:05.783Z,98646.75
2022-08-16T06:39:34.811Z,98667.69
2022-08-16T06:42:18.465Z,98683.09
2022-08-16T06:44:46.489Z,98694.56
2022-08-16T06:47:17.053Z,98699.25
2022-08-16T06:49:52.530Z,98716.63
2022-08-16T06:52:57.632Z,98715.50
2022-08-16T06:55:07.794Z,98731.38
2022-08-16T06:57:40.385Z,98698.41
2022-08-16T07:00:24.321Z,98724.78
2022-08-16T07:02:53.628Z,98703.44
2022-08-16T07:05:27.284Z,98727.13
2022-08-16T07:08:10.595Z,98735.75
2022-08-16T07:10:38.700Z,98734.50
2022-08-16T07:13:11.552Z,98718.38
2022-08-16T07:15:50.365Z,98736.22
2022-08-16T07:18:20.248Z,98738.53
2022-08-16T07:20:48.437Z,98733.06
2022-08-16T07:23:16.153Z,98773.34
2022-08-16T07:25:43.294Z,98808.66
2022-08-16T07:28:20.449Z,98848.78
2022-08-16T07:30:48.342Z,98854.44
2022-08-16T07:33:41.281Z,98871.00
2022-08-16T07:36:06.280Z,98886.03
2022-08-16T07:38:34.357Z,98880.91
2022-08-16T07:41:01.937Z,98890.56
2022-08-16T07:43:37.014Z,98901.84
2022-08-16T07:46:07.340Z,98920.72
2022-08-16T07:48:55.264Z,98920.88
2022-08-16T07:51:31.695Z,98917.25
2022-08-16T07:54:02.438Z,98932.28
2022-08-16T07:56:37.512Z,98929.16
2022-08-16T07:59:05.429Z,98924.06
2022-08-16T08:01:32.217Z,98921.34
2022-08-16T08:03:59.565Z,98913.97
2022-08-16T08:06:30.649Z,98900.72
2022-08-16T08:08:59.404Z,98892.28
2022-08-16T08:11:28.189Z,98896.09
2022-08-16T08:13:57.603Z,98903.25
2022-08-16T08:16:31.152Z,98933.97
2022-08-16T08:19:00.997Z,98927.75
2022-08-16T08:21:58.253Z,98906.38
2022-08-16T08:24:15.721Z,98881.66
2022-08-16T08:26:43.537Z,98841.63
2022-08-16T08:29:12.029Z,98829.13
2022-08-16T08:31:42.370Z,98817.06
2022-08-16T08:34:09.152Z,98805.13
2022-08-16T08:36:40.012Z,98816.88
2022-08-16T08:39:12.647Z,98814.28
2022-08-16T08:41:42.459Z,98825.16
2022-08-16T08:44:29.292Z,98804.03
2022-08-16T08:47:00.554Z,98800.63
2022-08-16T08:49:45.982Z,98833.78
2022-08-16T08:52:34.623Z,98841.56
2022-08-16T08:55:10.478Z,98842.88
2022-08-16T08:57:40.657Z,98828.34
2022-08-16T09:00:13.637Z,98807.91
2022-08-16T09:02:50.240Z,98841.41
2022-08-16T09:05:20.233Z,98829.78
2022-08-16T09:08:00.728Z,98850.78
2022-08-16T09:10:30.347Z,98858.47
2022-08-16T09:12:58.382Z,98862.91
2022-08-16T09:15:32.847Z,98865.94
2022-08-16T09:18:27.095Z,98862.72
2022-08-16T09:20:59.582Z,98846.25
2022-08-16T09:23:28.165Z,98836.72
2022-08-16T09:25:55.030Z,98836.97
2022-08-16T09:28:38.074Z,98829.44
2022-08-16T09:31:08.438Z,98832.09
2022-08-16T09:33:39.284Z,98829.44
2022-08-16T09:36:12.216Z,98820.94
2022-08-16T09:38:54.138Z,98824.91
2022-08-16T09:41:26.916Z,98816.91
2022-08-16T09:43:59.976Z,98806.91
2022-08-16T09:46:33.468Z,98792.41
2022-08-16T09:49:14.821Z,98765.47
2022-08-16T09:51:42.311Z,98799.97
2022-08-16T09:54:16.766Z,98789.53
2022-08-16T09:56:52.235Z,98798.88
2022-08-16T09:59:22.596Z,98791.28
2022-08-16T10:01:51.704Z,98769.06
2022-08-16T10:04:34.313Z,98785.13
2022-08-16T10:07:15.068Z,98770.28
2022-08-16T10:09:53.517Z,98784.88
2022-08-16T10:12:42.702Z,98787.38
2022-08-16T10:15:15.871Z,98761.81
2022-08-16T10:17:45.720Z,98766.19
2022-08-16T10:20:27.860Z,98754.97
2022-08-16T10:23:00.841Z,98752.81
2022-08-16T10:27:19.700Z,98744.31
2022-08-16T10:28:28.941Z,98751.72
2022-08-16T10:30:58.744Z,98756.91
2022-08-16T10:33:27.256Z,98767.88
2022-08-16T10:36:03.170Z,98773.03
2022-08-16T10:38:33.161Z,98780.59
2022-08-16T10:41:04.542Z,98796.28
2022-08-16T10:43:31.431Z,98803.09
2022-08-16T10:46:00.245Z,98831.03
2022-08-16T10:48:28.851Z,98840.78
2022-08-16T10:50:59.759Z,98863.81
2022-08-16T10:53:33.140Z,98878.06
2022-08-16T10:56:02.687Z,98877.28
2022-08-16T10:58:34.494Z,98858.25
2022-08-16T11:03:54.511Z,98855.06
2022-08-16T11:06:27.815Z,98850.69
2022-08-16T11:14:29.509Z,98823.56
2022-08-16T11:17:10.698Z,98812.28
2022-08-16T11:22:47.095Z,98801.81
2022-08-16T11:26:07.769Z,98812.69
2022-08-16T11:28:05.686Z,98805.84
2022-08-16T11:30:38.989Z,98802.94
2022-08-16T11:33:06.902Z,98795.09
2022-08-16T11:38:47.381Z,98794.63
2022-08-16T11:41:10.526Z,98794.16
2022-08-16T11:43:40.423Z,98795.31
2022-08-16T11:46:44.833Z,98791.34
2022-08-16T11:48:57.074Z,98790.50
2022-08-16T11:51:26.278Z,98805.16
2022-08-16T11:53:53.199Z,98812.34
2022-08-16T11:56:29.940Z,98824.56
2022-08-16T11:59:08.070Z,98819.06
2022-08-16T12:01:55.369Z,98815.75
2022-08-16T12:04:22.185Z,98800.88
2022-08-16T12:06:49.974Z,98808.41
2022-08-16T12:09:20.127Z,98813.75
2022-08-16T12:11:47.153Z,98810.91
2022-08-16T12:14:19.786Z,98813.25
2022-08-16T12:16:55.438Z,98806.91
2022-08-16T12:19:33.762Z,98807.91
2022-08-16T12:22:05.886Z,98815.91
2022-08-16T12:24:51.118Z,98799.06
2022-08-16T12:27:23.170Z,98803.41
2022-08-16T12:29:54.084Z,98802.72
2022-08-16T12:32:35.851Z,98795.91
2022-08-16T12:35:08.877Z,98811.41
2022-08-16T12:37:36.230Z,98809.72
2022-08-16T12:40:04.910Z,98832.09
2022-08-16T12:42:35.741Z,98814.06
2022-08-16T12:45:09.670Z,98808.72
2022-08-16T12:48:10.082Z,98805.72
2022-08-16T12:50:41.421Z,98806.22
2022-08-16T12:53:08.207Z,98816.72
2022-08-16T12:55:41.999Z,98815.75
2022-08-16T12:58:13.852Z,98817.06
2022-08-16T13:00:58.877Z,98818.91
2022-08-16T13:03:25.918Z,98816.41
2022-08-16T13:05:56.296Z,98818.03
2022-08-16T13:08:27.564Z,98814.88
2022-08-16T13:10:57.313Z,98830.25
2022-08-16T13:13:26.305Z,98820.91
2022-08-16T13:15:56.896Z,98815.09
2022-08-16T13:18:34.556Z,98799.72
2022-08-16T13:21:06.784Z,98805.41
2022-08-16T13:23:36.064Z,98817.44
2022-08-16T13:26:10.010Z,98805.72
2022-08-16T13:28:37.342Z,98810.06
2022-08-16T13:31:04.380Z,98814.41
2022-08-16T13:33:37.070Z,98816.59
2022-08-16T13:36:17.053Z,98805.22
2022-08-16T13:38:56.280Z,98801.41
2022-08-16T13:41:29.948Z,98799.25
2022-08-16T13:43:59.358Z,98792.38
2022-08-16T13:46:26.693Z,98820.72
2022-08-16T13:48:53.418Z,98805.88
2022-08-16T13:51:20.582Z,98801.00
2022-08-16T13:53:54.595Z,98790.97
2022-08-16T13:56:26.044Z,98786.69
2022-08-16T13:59:05.630Z,98805.22
2022-08-16T14:01:32.956Z,98797.72
2022-08-16T14:04:03.495Z,98793.75
2022-08-16T14:06:31.201Z,98804.56
2022-08-16T14:08:59.225Z,98791.22
2022-08-16T14:11:34.334Z,98803.06
2022-08-16T14:14:01.817Z,98800.22
2022-08-16T14:16:34.101Z,98781.06
2022-08-16T14:19:02.213Z,98785.53
2022-08-16T14:21:35.038Z,98791.34
2022-08-16T14:24:12.889Z,98793.31
2022-08-16T14:26:49.910Z,98816.22
2022-08-16T14:31:49.520Z,98797.34
2022-08-16T14:34:16.610Z,98816.75
2022-08-16T14:36:43.595Z,98830.25
2022-08-16T14:39:10.234Z,98805.56
2022-08-16T14:41:39.544Z,98800.56
2022-08-16T14:44:07.571Z,98813.06
2022-08-16T14:46:35.933Z,98807.53
2022-08-16T14:49:02.623Z,98784.13
2022-08-16T14:51:29.499Z,98809.50
2022-08-16T14:53:59.639Z,98810.47
2022-08-16T14:56:42.455Z,98819.34
2022-08-16T14:59:10.768Z,98822.81
2022-08-16T15:01:59.604Z,98828.81
2022-08-16T15:04:36.882Z,98837.28
2022-08-16T15:07:10.181Z,98827.28
2022-08-16T15:09:44.512Z,98844.13
2022-08-16T15:12:31.033Z,98850.72
2022-08-16T15:15:01.711Z,98848.22
2022-08-16T15:17:33.985Z,98844.16
2022-08-16T15:20:08.422Z,98840.41
2022-08-16T15:22:39.232Z,98861.13
2022-08-16T15:25:10.849Z,98855.03
2022-08-16T15:27:42.047Z,98841.81
2022-08-16T15:30:57.153Z,98875.84
2022-08-16T15:33:08.735Z,98869.28
2022-08-16T15:35:38.812Z,98865.53
2022-08-16T15:38:09.245Z,98883.09
2022-08-16T15:40:37.208Z,98875.38
2022-08-16T15:43:27.277Z,98882.16
2022-08-16T15:46:54.658Z,98899.72
2022-08-16T15:49:09.574Z,98914.50
2022-08-16T15:51:36.954Z,98919.66
2022-08-16T15:54:20.934Z,98927.03
2022-08-16T15:56:55.196Z,98895.91
2022-08-16T15:59:24.642Z,98925.13
2022-08-16T16:01:55.919Z,98892.13
2022-08-16T16:04:25.746Z,98877.78
2022-08-16T16:06:54.879Z,98899.44
2022-08-16T16:09:26.237Z,98902.50
2022-08-16T16:12:16.389Z,98906.22
2022-08-16T16:14:52.198Z,98921.78
2022-08-16T16:17:18.766Z,98916.97
2022-08-16T16:19:45.520Z,98931.25
2022-08-16T16:22:16.444Z,98946.13
2022-08-16T16:24:47.067Z,98944.88
2022-08-16T16:27:14.107Z,98953.72
2022-08-16T16:29:42.841Z,98972.78
2022-08-16T16:32:13.782Z,98968.88
2022-08-16T16:34:43.167Z,98964.72
2022-08-16T16:37:10.255Z,98963.03
2022-08-16T16:39:37.568Z,98988.16
2022-08-16T16:42:05.272Z,98964.13
2022-08-16T16:44:36.353Z,98976.16
2022-08-16T16:47:04.206Z,98972.34
2022-08-16T16:49:33.962Z,98973.00
2022-08-16T16:52:06.780Z,98962.22
2022-08-16T16:54:35.554Z,98944.25
2022-08-16T16:57:03.087Z,98952.94
2022-08-16T16:59:29.693Z,98941.63
2022-08-16T17:02:40.936Z,98942.56
2022-08-16T17:04:46.149Z,98942.84
2022-08-16T17:07:14.373Z,98946.91
2022-08-16T17:09:41.446Z,98935.44
2022-08-16T17:12:10.176Z,98921.59
2022-08-16T17:14:52.483Z,98936.84
2022-08-16T17:17:19.077Z,98927.34
2022-08-16T17:19:45.824Z,98954.78
2022-08-16T17:22:19.789Z,98936.19
2022-08-16T17:24:50.674Z,98960.53
2022-08-16T17:27:32.932Z,98956.09
2022-08-16T17:30:15.078Z,98981.81
2022-08-16T17:32:50.538Z,98978.75
2022-08-16T17:35:34.347Z,98997.91
2022-08-16T17:38:04.810Z,99005.03
2022-08-16T17:40:45.976Z,99007.13
2022-08-16T17:43:28.465Z,99008.38
2022-08-16T17:45:56.273Z,99027.81
2022-08-16T17:48:23.022Z,99035.53
2022-08-16T17:50:49.777Z,99051.47
2022-08-16T17:53:21.817Z,99060.13
2022-08-16T17:55:50.586Z,99066.84
2022-08-16T17:58:23.687Z,99073.81
2022-08-16T18:00:56.798Z,99071.16
2022-08-16T18:04:06.937Z,99063.59
2022-08-16T18:06:15.563Z,99059.13
2022-08-16T18:08:42.748Z,99050.03
2022-08-16T18:11:10.159Z,99072.09
2022-08-16T18:13:43.037Z,99087.22
2022-08-16T18:16:11.127Z,99088.19
2022-08-16T18:18:37.866Z,99079.78
2022-08-16T18:21:23.014Z,99073.78
2022-08-16T18:23:49.639Z,99080.06
2022-08-16T18:26:16.324Z,99088.31
2022-08-16T18:28:42.982Z,99101.91
2022-08-16T18:31:09.897Z,99091.16
2022-08-16T18:33:43.553Z,99093.09
2022-08-16T18:36:19.900Z,99085.09
2022-08-16T18:38:48.485Z,99088.19
2022-08-16T18:41:15.126Z,99092.81
2022-08-16T18:44:22.446Z,99086.41
2022-08-16T18:46:28.268Z,99079.53
2022-08-16T18:48:54.882Z,99077.16
2022-08-16T18:51:25.005Z,99074.63
2022-08-16T18:53:52.370Z,99081.50
2022-08-16T18:56:18.930Z,99080.94
2022-08-16T18:58:45.583Z,99083.75
2022-08-16T19:01:12.180Z,99074.50
2022-08-16T19:03:38.830Z,99040.94
2022-08-16T19:06:13.989Z,99073.94
2022-08-16T19:08:43.657Z,99070.72
2022-08-16T19:11:13.923Z,99067.25
2022-08-16T19:13:45.090Z,99049.75
2022-08-16T19:16:12.735Z,99045.16
2022-08-16T19:18:39.765Z,99038.88
2022-08-16T19:21:07.940Z,99044.72
2022-08-16T19:23:37.223Z,99040.84
2022-08-16T19:26:24.376Z,99034.38
2022-08-16T19:28:58.386Z,99037.72
2022-08-16T19:31:32.714Z,99036.75
2022-08-16T19:34:00.464Z,99040.78
2022-08-16T19:36:35.114Z,99034.38
2022-08-16T19:39:06.193Z,99039.69
2022-08-16T19:41:35.131Z,99014.50
2022-08-16T19:44:01.800Z,99008.53
2022-08-16T19:46:28.506Z,99013.84
2022-08-16T19:48:55.104Z,98991.50
2022-08-16T19:51:21.755Z,98998.19
2022-08-16T19:53:48.390Z,98989.53
2022-08-16T19:56:14.981Z,99000.41
2022-08-16T19:59:02.064Z,98995.25
2022-08-16T20:01:28.873Z,99001.97
2022-08-16T20:03:55.777Z,99002.78
2022-08-16T20:06:32.138Z,98983.78
2022-08-16T20:09:05.518Z,98995.78
2022-08-16T20:11:32.221Z,98991.22
2022-08-16T20:13:59.442Z,99002.38
2022-08-16T20:16:26.277Z,98996.94
2022-08-16T20:18:52.898Z,99008.78
2022-08-16T20:21:19.578Z,98970.81
2022-08-16T20:23:46.390Z,98949.03
2022-08-16T20:26:13.103Z,98946.09
2022-08-16T20:28:52.497Z,98974.72
2022-08-16T20:31:24.162Z,98963.81
2022-08-16T20:33:52.490Z,98958.63
2022-08-16T20:36:19.076Z,98968.16
2022-08-16T20:38:47.710Z,98962.56
2022-08-16T20:41:16.186Z,98964.81
2022-08-16T20:43:43.102Z,98967.00
2022-08-16T20:46:09.820Z,98942.03
2022-08-16T20:48:36.494Z,98947.19
2022-08-16T20:51:04.142Z,98929.31
2022-08-16T20:53:30.792Z,98928.59
2022-08-16T20:55:57.642Z,98917.16
2022-08-16T20:58:24.237Z,98913.22
2022-08-16T21:00:50.877Z,98909.47
2022-08-16T21:03:17.482Z,98902.88
2022-08-16T21:05:45.320Z,98894.53
2022-08-16T21:08:50.068Z,98873.03
2022-08-16T21:11:01.019Z,98889.63
2022-08-16T21:13:30.724Z,98887.69
2022-08-16T21:15:58.245Z,98876.94
2022-08-16T21:18:25.151Z,98867.28
2022-08-16T21:20:52.242Z,98856.41
2022-08-16T21:23:19.021Z,98859.72
2022-08-16T21:25:58.527Z,98857.47
2022-08-16T21:28:40.921Z,98849.97
2022-08-16T21:31:14.522Z,98853.72
2022-08-16T21:33:42.552Z,98862.22
2022-08-16T21:36:10.380Z,98873.53
2022-08-16T21:38:37.050Z,98852.34
2022-08-16T21:41:05.320Z,98870.09
2022-08-16T21:43:33.460Z,98875.66
2022-08-16T21:46:01.451Z,98875.81
2022-08-16T21:48:33.498Z,98866.16
2022-08-16T21:51:03.587Z,98885.56
2022-08-16T21:53:30.578Z,98861.97
2022-08-16T21:55:58.267Z,98884.59
2022-08-16T21:58:25.449Z,98885.03
2022-08-16T22:00:52.148Z,98887.97
2022-08-16T22:03:19.190Z,98887.06
2022-08-16T22:06:11.632Z,98902.88
2022-08-16T22:08:34.218Z,98893.22
2022-08-16T22:11:06.632Z,98886.81
2022-08-16T22:13:35.008Z,98867.97
2022-08-16T22:16:03.758Z,98882.75
2022-08-16T22:18:30.362Z,98869.78
2022-08-16T22:20:57.232Z,98854.97
2022-08-16T22:23:26.211Z,98868.94
2022-08-16T22:25:54.764Z,98864.91
2022-08-16T22:28:22.774Z,98855.38
2022-08-16T22:30:51.437Z,98873.13
2022-08-16T22:33:21.471Z,98854.56
2022-08-16T22:35:54.935Z,98869.34
2022-08-16T22:38:54.299Z,98867.81
2022-08-16T22:41:08.782Z,98878.69
2022-08-16T22:43:35.347Z,98877.00
2022-08-16T22:46:02.383Z,98875.03
2022-08-16T22:48:29.055Z,98872.50
2022-08-16T22:50:55.711Z,98871.28
2022-08-16T22:53:22.553Z,98873.94
2022-08-16T22:55:49.187Z,98869.03
2022-08-16T22:58:15.764Z,98881.88
2022-08-16T23:00:44.438Z,98862.75
2022-08-16T23:03:14.438Z,98861.31
2022-08-16T23:05:50.299Z,98873.88
2022-08-16T23:08:38.393Z,98873.50
2022-08-16T23:11:07.806Z,98869.97
2022-08-16T23:13:34.440Z,98876.69
2022-08-16T23:16:11.317Z,98880.44
2022-08-16T23:18:39.670Z,98887.16
2022-08-16T23:21:09.050Z,98883.81
2022-08-16T23:23:36.899Z,98865.06
2022-08-16T23:26:44.498Z,98871.38
2022-08-16T23:28:50.711Z,98882.94
2022-08-16T23:31:17.597Z,98894.06
2022-08-16T23:33:44.360Z,98890.16
2022-08-16T23:36:11.131Z,98880.69
2022-08-16T23:38:39.587Z,98892.84
2022-08-16T23:41:11.805Z,98885.59
2022-08-16T23:43:43.187Z,98878.19
2022-08-16T23:46:16.242Z,98871.81
2022-08-16T23:49:58.302Z,98858.41
2022-08-16T23:51:31.010Z,98871.66
2022-08-16T23:53:57.577Z,98853.50
2022-08-16T23:56:25.701Z,98858.53
2022-08-16T23:58:54.549Z,98855.19
